sensor_id;sensor_type;location;lat;lon;timestamp;pressure;altitude;pressure_sealevel;temperature
24740;BMP280;45234;48.148;17.128;2023-04-25T00:01:17;99135.25;;;12.25
24740;BMP280;45234;48.148;17.128;2023-04-25T00:03:44;99128.94;;;12.21
24740;BMP280;45234;48.148;17.128;2023-04-25T00:06:13;99135.72;;;12.22
24740;BMP280;45234;48.148;17.128;2023-04-25T00:08:40;99137.06;;;12.24
24740;BMP280;45234;48.148;17.128;2023-04-25T00:11:07;99141.81;;;12.27
24740;BMP280;45234;48.148;17.128;2023-04-25T00:13:34;99140.25;;;12.26
24740;BMP280;45234;48.148;17.128;2023-04-25T00:16:01;99141.25;;;12.25
24740;BMP280;45234;48.148;17.128;2023-04-25T00:18:29;99138.66;;;12.25
24740;BMP280;45234;48.148;17.128;2023-04-25T00:20:56;99138.44;;;12.27
24740;BMP280;45234;48.148;17.128;2023-04-25T00:23:24;99137.16;;;12.29
24740;BMP280;45234;48.148;17.128;2023-04-25T00:25:51;99142.50;;;12.35
24740;BMP280;45234;48.148;17.128;2023-04-25T00:28:18;99137.16;;;12.29
24740;BMP280;45234;48.148;17.128;2023-04-25T00:30:45;99132.44;;;12.26
24740;BMP280;45234;48.148;17.128;2023-04-25T00:33:12;99132.97;;;12.28
24740;BMP280;45234;48.148;17.128;2023-04-25T00:35:39;99127.78;;;12.28
24740;BMP280;45234;48.148;17.128;2023-04-25T00:38:06;99136.84;;;12.26
24740;BMP280;45234;48.148;17.128;2023-04-25T00:40:35;99128.13;;;12.20
24740;BMP280;45234;48.148;17.128;2023-04-25T00:43:02;99134.91;;;12.21
24740;BMP280;45234;48.148;17.128;2023-04-25T00:45:30;99133.78;;;12.17
24740;BMP280;45234;48.148;17.128;2023-04-25T00:47:58;99147.06;;;12.09
24740;BMP280;45234;48.148;17.128;2023-04-25T00:50:25;99141.09;;;12.09
24740;BMP280;45234;48.148;17.128;2023-04-25T00:52:52;99147.56;;;12.06
24740;BMP280;45234;48.148;17.128;2023-04-25T00:55:20;99149.56;;;12.04
24740;BMP280;45234;48.148;17.128;2023-04-25T00:57:48;99149.09;;;12.07
24740;BMP280;45234;48.148;17.128;2023-04-25T01:00:15;99151.47;;;12.09
24740;BMP280;45234;48.148;17.128;2023-04-25T01:02:44;99157.28;;;12.11
24740;BMP280;45234;48.148;17.128;2023-04-25T01:05:11;99162.22;;;12.01
24740;BMP280;45234;48.148;17.128;2023-04-25T01:07:40;99158.69;;;11.95
24740;BMP280;45234;48.148;17.128;2023-04-25T01:10:08;99149.31;;;11.94
24740;BMP280;45234;48.148;17.128;2023-04-25T01:12:37;99158.13;;;11.93
24740;BMP280;45234;48.148;17.128;2023-04-25T01:15:05;99146.94;;;11.92
24740;BMP280;45234;48.148;17.128;2023-04-25T01:17:33;99147.97;;;11.91
24740;BMP280;45234;48.148;17.128;2023-04-25T01:20:04;99152.38;;;11.91
24740;BMP280;45234;48.148;17.128;2023-04-25T01:22:32;99145.47;;;11.85
24740;BMP280;45234;48.148;17.128;2023-04-25T01:25:00;99147.50;;;11.83
24740;BMP280;45234;48.148;17.128;2023-04-25T01:27:29;99143.88;;;11.84
24740;BMP280;45234;48.148;17.128;2023-04-25T01:29:57;99151.66;;;11.84
24740;BMP280;45234;48.148;17.128;2023-04-25T01:32:33;99145.91;;;11.82
24740;BMP280;45234;48.148;17.128;2023-04-25T01:35:08;99133.50;;;11.84
24740;BMP280;45234;48.148;17.128;2023-04-25T01:37:44;99136.53;;;11.81
24740;BMP280;45234;48.148;17.128;2023-04-25T01:40:12;99140.50;;;11.83
24740;BMP280;45234;48.148;17.128;2023-04-25T01:42:41;99125.13;;;11.82
24740;BMP280;45234;48.148;17.128;2023-04-25T01:45:09;99133.38;;;11.79
24740;BMP280;45234;48.148;17.128;2023-04-25T01:47:38;99143.16;;;11.77
24740;BMP280;45234;48.148;17.128;2023-04-25T01:50:07;99136.03;;;11.72
24740;BMP280;45234;48.148;17.128;2023-04-25T01:52:36;99129.91;;;11.67
24740;BMP280;45234;48.148;17.128;2023-04-25T01:55:06;99135.44;;;11.58
24740;BMP280;45234;48.148;17.128;2023-04-25T01:57:36;99133.25;;;11.55
24740;BMP280;45234;48.148;17.128;2023-04-25T02:00:05;99129.09;;;11.54
24740;BMP280;45234;48.148;17.128;2023-04-25T02:02:40;99131.13;;;11.52
24740;BMP280;45234;48.148;17.128;2023-04-25T02:05:28;99127.53;;;11.53
24740;BMP280;45234;48.148;17.128;2023-04-25T02:07:55;99136.66;;;11.56
24740;BMP280;45234;48.148;17.128;2023-04-25T02:10:25;99133.84;;;11.57
24740;BMP280;45234;48.148;17.128;2023-04-25T02:13:06;99128.22;;;11.60
24740;BMP280;45234;48.148;17.128;2023-04-25T02:16:04;99133.41;;;11.60
24740;BMP280;45234;48.148;17.128;2023-04-25T02:18:32;99128.22;;;11.60
24740;BMP280;45234;48.148;17.128;2023-04-25T02:21:00;99135.44;;;11.58
24740;BMP280;45234;48.148;17.128;2023-04-25T02:23:28;99139.63;;;11.59
24740;BMP280;45234;48.148;17.128;2023-04-25T02:25:56;99138.63;;;11.60
24740;BMP280;45234;48.148;17.128;2023-04-25T02:28:24;99137.81;;;11.60
24740;BMP280;45234;48.148;17.128;2023-04-25T02:30:52;99138.03;;;11.58
24740;BMP280;45234;48.148;17.128;2023-04-25T02:33:20;99136.03;;;11.60
24740;BMP280;45234;48.148;17.128;2023-04-25T02:35:48;99139.06;;;11.57
24740;BMP280;45234;48.148;17.128;2023-04-25T02:38:15;99139.47;;;11.54
24740;BMP280;45234;48.148;17.128;2023-04-25T02:40:43;99132.56;;;11.48
24740;BMP280;45234;48.148;17.128;2023-04-25T02:43:10;99140.34;;;11.48
24740;BMP280;45234;48.148;17.128;2023-04-25T02:45:37;99131.56;;;11.49
24740;BMP280;45234;48.148;17.128;2023-04-25T02:48:05;99126.50;;;11.54
24740;BMP280;45234;48.148;17.128;2023-04-25T02:50:33;99130.25;;;11.58
24740;BMP280;45234;48.148;17.128;2023-04-25T02:53:00;99127.31;;;11.55
24740;BMP280;45234;48.148;17.128;2023-04-25T02:55:34;99128.97;;;11.49
24740;BMP280;45234;48.148;17.128;2023-04-25T02:58:02;99124.44;;;11.45
24740;BMP280;45234;48.148;17.128;2023-04-25T03:00:45;99130.84;;;11.42
24740;BMP280;45234;48.148;17.128;2023-04-25T03:03:12;99128.13;;;11.37
24740;BMP280;45234;48.148;17.128;2023-04-25T03:05:40;99123.53;;;11.39
24740;BMP280;45234;48.148;17.128;2023-04-25T03:08:08;99113.47;;;11.43
24740;BMP280;45234;48.148;17.128;2023-04-25T03:10:39;99121.63;;;11.46
24740;BMP280;45234;48.148;17.128;2023-04-25T03:13:08;99121.63;;;11.46
24740;BMP280;45234;48.148;17.128;2023-04-25T03:15:37;99122.84;;;11.44
24740;BMP280;45234;48.148;17.128;2023-04-25T03:18:04;99124.78;;;11.48
24740;BMP280;45234;48.148;17.128;2023-04-25T03:20:31;99119.94;;;11.52
24740;BMP280;45234;48.148;17.128;2023-04-25T03:22:58;99125.47;;;11.55
24740;BMP280;45234;48.148;17.128;2023-04-25T03:25:26;99122.34;;;11.53
24740;BMP280;45234;48.148;17.128;2023-04-25T03:27:53;99123.91;;;11.54
24740;BMP280;45234;48.148;17.128;2023-04-25T03:30:22;99123.91;;;11.54
24740;BMP280;45234;48.148;17.128;2023-04-25T03:32:49;99130.34;;;11.52
24740;BMP280;45234;48.148;17.128;2023-04-25T03:35:17;99127.94;;;11.50
24740;BMP280;45234;48.148;17.128;2023-04-25T03:37:44;99133.16;;;11.50
24740;BMP280;45234;48.148;17.128;2023-04-25T03:40:17;99131.41;;;11.44
24740;BMP280;45234;48.148;17.128;2023-04-25T03:43:02;99132.81;;;11.47
24740;BMP280;45234;48.148;17.128;2023-04-25T03:45:29;99127.75;;;11.52
24740;BMP280;45234;48.148;17.128;2023-04-25T03:47:57;99132.72;;;11.53
24740;BMP280;45234;48.148;17.128;2023-04-25T03:50:26;99140.50;;;11.53
24740;BMP280;45234;48.148;17.128;2023-04-25T03:52:53;99141.72;;;11.51
24740;BMP280;45234;48.148;17.128;2023-04-25T03:55:21;99142.19;;;11.48
24740;BMP280;45234;48.148;17.128;2023-04-25T03:57:48;99147.91;;;11.50
24740;BMP280;45234;48.148;17.128;2023-04-25T04:00:16;99138.00;;;11.47
24740;BMP280;45234;48.148;17.128;2023-04-25T04:02:43;99145.53;;;11.48
24740;BMP280;45234;48.148;17.128;2023-04-25T04:05:12;99148.72;;;11.50
24740;BMP280;45234;48.148;17.128;2023-04-25T04:07:46;99149.72;;;11.49
24740;BMP280;45234;48.148;17.128;2023-04-25T04:10:17;99145.09;;;11.51
24740;BMP280;45234;48.148;17.128;2023-04-25T04:12:45;99152.31;;;11.49
24740;BMP280;45234;48.148;17.128;2023-04-25T04:15:12;99157.94;;;11.46
24740;BMP280;45234;48.148;17.128;2023-04-25T04:17:43;99158.66;;;11.53
24740;BMP280;45234;48.148;17.128;2023-04-25T04:20:11;99168.16;;;11.59
24740;BMP280;45234;48.148;17.128;2023-04-25T04:22:40;99165.56;;;11.59
24740;BMP280;45234;48.148;17.128;2023-04-25T04:25:10;99168.75;;;11.61
24740;BMP280;45234;48.148;17.128;2023-04-25T04:28:03;99169.28;;;11.63
24740;BMP280;45234;48.148;17.128;2023-04-25T04:30:48;99173.19;;;11.73
24740;BMP280;45234;48.148;17.128;2023-04-25T04:33:18;99161.78;;;11.74
24740;BMP280;45234;48.148;17.128;2023-04-25T04:35:51;99164.16;;;11.75
24740;BMP280;45234;48.148;17.128;2023-04-25T04:38:19;99165.31;;;11.79
24740;BMP280;45234;48.148;17.128;2023-04-25T04:40:46;99163.50;;;11.80
24740;BMP280;45234;48.148;17.128;2023-04-25T04:43:33;99169.28;;;11.82
24740;BMP280;45234;48.148;17.128;2023-04-25T04:46:20;99166.44;;;11.83
24740;BMP280;45234;48.148;17.128;2023-04-25T04:49:12;99175.03;;;11.84
24740;BMP280;45234;48.148;17.128;2023-04-25T04:51:54;99176.91;;;11.77
24740;BMP280;45234;48.148;17.128;2023-04-25T04:54:38;99175.28;;;11.64
24740;BMP280;45234;48.148;17.128;2023-04-25T04:57:32;99166.41;;;11.72
24740;BMP280;45234;48.148;17.128;2023-04-25T05:00:23;99186.88;;;11.80
24740;BMP280;45234;48.148;17.128;2023-04-25T05:03:10;99169.38;;;11.87
24740;BMP280;45234;48.148;17.128;2023-04-25T05:05:48;99178.19;;;11.86
24740;BMP280;45234;48.148;17.128;2023-04-25T05:08:34;99183.84;;;11.83
24740;BMP280;45234;48.148;17.128;2023-04-25T05:11:10;99187.88;;;11.79
24740;BMP280;45234;48.148;17.128;2023-04-25T05:13:49;99185.41;;;11.84
24740;BMP280;45234;48.148;17.128;2023-04-25T05:16:35;99180.22;;;11.84
24740;BMP280;45234;48.148;17.128;2023-04-25T05:19:41;99184.53;;;11.90
24740;BMP280;45234;48.148;17.128;2023-04-25T05:22:26;99187.38;;;12.00
24740;BMP280;45234;48.148;17.128;2023-04-25T05:25:16;99184.78;;;12.00
24740;BMP280;45234;48.148;17.128;2023-04-25T05:28:15;99174.84;;;11.97
24740;BMP280;45234;48.148;17.128;2023-04-25T05:31:09;99181.34;;;11.88
24740;BMP280;45234;48.148;17.128;2023-04-25T05:33:59;99177.66;;;11.95
24740;BMP280;45234;48.148;17.128;2023-04-25T05:36:38;99173.06;;;12.09
24740;BMP280;45234;48.148;17.128;2023-04-25T05:39:05;99180.88;;;12.21
24740;BMP280;45234;48.148;17.128;2023-04-25T05:42:02;99173.00;;;12.27
24740;BMP280;45234;48.148;17.128;2023-04-25T05:44:58;99174.34;;;12.30
24740;BMP280;45234;48.148;17.128;2023-04-25T05:48:01;99172.44;;;12.25
24740;BMP280;45234;48.148;17.128;2023-04-25T05:50:55;99174.00;;;12.26
24740;BMP280;45234;48.148;17.128;2023-04-25T05:53:46;99178.41;;;12.26
24740;BMP280;45234;48.148;17.128;2023-04-25T05:56:23;99171.50;;;12.31
24740;BMP280;45234;48.148;17.128;2023-04-25T05:58:53;99171.31;;;12.33
24740;BMP280;45234;48.148;17.128;2023-04-25T06:01:21;99169.06;;;12.48
24740;BMP280;45234;48.148;17.128;2023-04-25T06:03:48;99169.50;;;12.57
24740;BMP280;45234;48.148;17.128;2023-04-25T06:06:20;99174.59;;;12.63
24740;BMP280;45234;48.148;17.128;2023-04-25T06:08:49;99175.03;;;12.72
24740;BMP280;45234;48.148;17.128;2023-04-25T06:11:16;99170.19;;;12.87
24740;BMP280;45234;48.148;17.128;2023-04-25T06:13:43;99178.88;;;12.81
24740;BMP280;45234;48.148;17.128;2023-04-25T06:16:11;99163.81;;;12.83
24740;BMP280;45234;48.148;17.128;2023-04-25T06:18:38;99162.25;;;12.82
24740;BMP280;45234;48.148;17.128;2023-04-25T06:21:05;99169.63;;;12.85
24740;BMP280;45234;48.148;17.128;2023-04-25T06:23:32;99169.25;;;12.93
24740;BMP280;45234;48.148;17.128;2023-04-25T06:26:02;99174.13;;;13.01
24740;BMP280;45234;48.148;17.128;2023-04-25T06:28:32;99176.78;;;13.18
24740;BMP280;45234;48.148;17.128;2023-04-25T06:30:59;99175.28;;;13.34
24740;BMP280;45234;48.148;17.128;2023-04-25T06:33:28;99181.78;;;13.48
24740;BMP280;45234;48.148;17.128;2023-04-25T06:35:56;99176.47;;;13.43
24740;BMP280;45234;48.148;17.128;2023-04-25T06:38:26;99177.22;;;13.55
24740;BMP280;45234;48.148;17.128;2023-04-25T06:40:55;99175.41;;;14.18
24740;BMP280;45234;48.148;17.128;2023-04-25T06:43:22;99183.78;;;14.75
24740;BMP280;45234;48.148;17.128;2023-04-25T06:45:52;99170.84;;;15.50
24740;BMP280;45234;48.148;17.128;2023-04-25T06:48:21;99177.97;;;16.24
24740;BMP280;45234;48.148;17.128;2023-04-25T06:50:52;99182.03;;;17.14
24740;BMP280;45234;48.148;17.128;2023-04-25T06:53:23;99172.13;;;17.42
24740;BMP280;45234;48.148;17.128;2023-04-25T06:55:57;99169.00;;;17.95
24740;BMP280;45234;48.148;17.128;2023-04-25T06:58:29;99172.13;;;18.07
24740;BMP280;45234;48.148;17.128;2023-04-25T07:00:56;99177.84;;;18.25
24740;BMP280;45234;48.148;17.128;2023-04-25T07:03:25;99179.97;;;18.18
24740;BMP280;45234;48.148;17.128;2023-04-25T07:05:57;99174.22;;;17.70
24740;BMP280;45234;48.148;17.128;2023-04-25T07:08:25;99168.97;;;17.29
24740;BMP280;45234;48.148;17.128;2023-04-25T07:10:51;99166.25;;;16.89
24740;BMP280;45234;48.148;17.128;2023-04-25T07:13:18;99173.50;;;16.72
24740;BMP280;45234;48.148;17.128;2023-04-25T07:15:45;99170.31;;;16.65
24740;BMP280;45234;48.148;17.128;2023-04-25T07:18:15;99167.13;;;16.52
24740;BMP280;45234;48.148;17.128;2023-04-25T07:20:43;99161.19;;;16.20
24740;BMP280;45234;48.148;17.128;2023-04-25T07:23:10;99162.97;;;16.56
24740;BMP280;45234;48.148;17.128;2023-04-25T07:25:38;99166.84;;;16.07
24740;BMP280;45234;48.148;17.128;2023-04-25T07:28:05;99160.56;;;16.03
24740;BMP280;45234;48.148;17.128;2023-04-25T07:30:34;99160.00;;;16.01
24740;BMP280;45234;48.148;17.128;2023-04-25T07:33:04;99160.09;;;16.11
24740;BMP280;45234;48.148;17.128;2023-04-25T07:35:31;99163.28;;;16.23
24740;BMP280;45234;48.148;17.128;2023-04-25T07:37:58;99168.78;;;16.21
24740;BMP280;45234;48.148;17.128;2023-04-25T07:40:25;99166.59;;;16.45
24740;BMP280;45234;48.148;17.128;2023-04-25T07:42:58;99160.50;;;16.92
24740;BMP280;45234;48.148;17.128;2023-04-25T07:45:32;99158.00;;;17.53
24740;BMP280;45234;48.148;17.128;2023-04-25T07:48:00;99162.94;;;18.00
24740;BMP280;45234;48.148;17.128;2023-04-25T07:50:29;99160.50;;;18.39
24740;BMP280;45234;48.148;17.128;2023-04-25T07:52:57;99155.31;;;18.19
24740;BMP280;45234;48.148;17.128;2023-04-25T07:55:30;99148.31;;;17.94
24740;BMP280;45234;48.148;17.128;2023-04-25T07:58:10;99164.72;;;18.25
24740;BMP280;45234;48.148;17.128;2023-04-25T08:00:40;99154.88;;;18.66
24740;BMP280;45234;48.148;17.128;2023-04-25T08:03:28;99147.00;;;19.15
24740;BMP280;45234;48.148;17.128;2023-04-25T08:05:57;99152.72;;;19.51
24740;BMP280;45234;48.148;17.128;2023-04-25T08:08:27;99138.91;;;19.98
24740;BMP280;45234;48.148;17.128;2023-04-25T08:10:55;99136.94;;;19.56
24740;BMP280;45234;48.148;17.128;2023-04-25T08:13:23;99140.09;;;19.58
24740;BMP280;45234;48.148;17.128;2023-04-25T08:15:52;99137.06;;;19.70
24740;BMP280;45234;48.148;17.128;2023-04-25T08:18:19;99135.03;;;19.61
24740;BMP280;45234;48.148;17.128;2023-04-25T08:20:48;99132.19;;;20.11
24740;BMP280;45234;48.148;17.128;2023-04-25T08:23:15;99135.22;;;20.41
24740;BMP280;45234;48.148;17.128;2023-04-25T08:26:00;99128.31;;;20.45
24740;BMP280;45234;48.148;17.128;2023-04-25T08:28:28;99132.56;;;20.23
24740;BMP280;45234;48.148;17.128;2023-04-25T08:30:57;99126.41;;;20.09
24740;BMP280;45234;48.148;17.128;2023-04-25T08:33:32;99131.28;;;20.20
24740;BMP280;45234;48.148;17.128;2023-04-25T08:36:28;99133.53;;;20.51
24740;BMP280;45234;48.148;17.128;2023-04-25T08:39:00;99138.50;;;20.10
24740;BMP280;45234;48.148;17.128;2023-04-25T08:41:28;99139.69;;;19.70
24740;BMP280;45234;48.148;17.128;2023-04-25T08:43:56;99134.34;;;19.17
24740;BMP280;45234;48.148;17.128;2023-04-25T08:46:27;99127.31;;;19.07
24740;BMP280;45234;48.148;17.128;2023-04-25T08:49:21;99129.81;;;19.33
24740;BMP280;45234;48.148;17.128;2023-04-25T08:51:49;99123.59;;;19.18
24740;BMP280;45234;48.148;17.128;2023-04-25T08:54:21;99131.81;;;19.41
24740;BMP280;45234;48.148;17.128;2023-04-25T08:57:03;99131.41;;;19.57
24740;BMP280;45234;48.148;17.128;2023-04-25T08:59:32;99136.91;;;19.27
24740;BMP280;45234;48.148;17.128;2023-04-25T09:02:00;99129.75;;;18.99
24740;BMP280;45234;48.148;17.128;2023-04-25T09:04:32;99132.38;;;18.99
24740;BMP280;45234;48.148;17.128;2023-04-25T09:07:02;99130.69;;;19.18
24740;BMP280;45234;48.148;17.128;2023-04-25T09:09:29;99136.00;;;18.64
24740;BMP280;45234;48.148;17.128;2023-04-25T09:11:57;99134.59;;;18.27
24740;BMP280;45234;48.148;17.128;2023-04-25T09:14:26;99132.84;;;17.77
24740;BMP280;45234;48.148;17.128;2023-04-25T09:17:09;99127.03;;;18.00
24740;BMP280;45234;48.148;17.128;2023-04-25T09:19:40;99134.41;;;17.88
24740;BMP280;45234;48.148;17.128;2023-04-25T09:22:22;99128.13;;;17.54
24740;BMP280;45234;48.148;17.128;2023-04-25T09:24:50;99113.44;;;17.68
24740;BMP280;45234;48.148;17.128;2023-04-25T09:27:21;99127.81;;;17.91
24740;BMP280;45234;48.148;17.128;2023-04-25T09:30:02;99124.44;;;17.29
24740;BMP280;45234;48.148;17.128;2023-04-25T09:33:07;99126.81;;;17.46
24740;BMP280;45234;48.148;17.128;2023-04-25T09:35:40;99121.81;;;17.85
24740;BMP280;45234;48.148;17.128;2023-04-25T09:38:14;99123.38;;;17.61
24740;BMP280;45234;48.148;17.128;2023-04-25T09:41:00;99127.59;;;17.72
24740;BMP280;45234;48.148;17.128;2023-04-25T09:43:45;99118.16;;;17.51
24740;BMP280;45234;48.148;17.128;2023-04-25T09:46:14;99122.63;;;17.30
24740;BMP280;45234;48.148;17.128;2023-04-25T09:48:50;99128.13;;;17.74
24740;BMP280;45234;48.148;17.128;2023-04-25T09:51:26;99111.22;;;18.31
24740;BMP280;45234;48.148;17.128;2023-04-25T09:53:56;99121.88;;;18.55
24740;BMP280;45234;48.148;17.128;2023-04-25T09:56:44;99111.25;;;18.75
24740;BMP280;45234;48.148;17.128;2023-04-25T09:59:15;99109.84;;;18.93
24740;BMP280;45234;48.148;17.128;2023-04-25T10:01:43;99113.47;;;18.53
24740;BMP280;45234;48.148;17.128;2023-04-25T10:04:24;99116.53;;;18.05
24740;BMP280;45234;48.148;17.128;2023-04-25T10:07:01;99116.63;;;17.55
24740;BMP280;45234;48.148;17.128;2023-04-25T10:09:29;99109.25;;;17.57
24740;BMP280;45234;48.148;17.128;2023-04-25T10:12:00;99121.00;;;17.90
24740;BMP280;45234;48.148;17.128;2023-04-25T10:14:31;99112.41;;;17.79
24740;BMP280;45234;48.148;17.128;2023-04-25T10:16:58;99105.56;;;17.88
24740;BMP280;45234;48.148;17.128;2023-04-25T10:19:26;99098.72;;;18.07
24740;BMP280;45234;48.148;17.128;2023-04-25T10:22:07;99100.22;;;18.19
24740;BMP280;45234;48.148;17.128;2023-04-25T10:24:39;99094.75;;;18.15
24740;BMP280;45234;48.148;17.128;2023-04-25T10:27:07;99094.13;;;18.33
24740;BMP280;45234;48.148;17.128;2023-04-25T10:29:34;99084.00;;;18.66
24740;BMP280;45234;48.148;17.128;2023-04-25T10:32:02;99082.59;;;18.83
24740;BMP280;45234;48.148;17.128;2023-04-25T10:34:45;99083.16;;;18.75
24740;BMP280;45234;48.148;17.128;2023-04-25T10:37:15;99088.88;;;18.87
24740;BMP280;45234;48.148;17.128;2023-04-25T10:39:42;99092.66;;;18.71
24740;BMP280;45234;48.148;17.128;2023-04-25T10:42:10;99094.66;;;18.84
24740;BMP280;45234;48.148;17.128;2023-04-25T10:44:38;99094.38;;;18.91
24740;BMP280;45234;48.148;17.128;2023-04-25T10:47:07;99087.78;;;18.94
24740;BMP280;45234;48.148;17.128;2023-04-25T10:49:38;99091.34;;;19.08
24740;BMP280;45234;48.148;17.128;2023-04-25T10:52:25;99089.47;;;18.74
24740;BMP280;45234;48.148;17.128;2023-04-25T10:54:55;99091.59;;;18.67
24740;BMP280;45234;48.148;17.128;2023-04-25T10:57:44;99087.31;;;18.32
24740;BMP280;45234;48.148;17.128;2023-04-25T11:00:17;99099.56;;;18.57
24740;BMP280;45234;48.148;17.128;2023-04-25T11:02:52;99110.09;;;18.47
24740;BMP280;45234;48.148;17.128;2023-04-25T11:05:33;99105.16;;;18.40
24740;BMP280;45234;48.148;17.128;2023-04-25T11:08:32;99114.25;;;18.53
24740;BMP280;45234;48.148;17.128;2023-04-25T11:11:03;99103.16;;;18.66
24740;BMP280;45234;48.148;17.128;2023-04-25T11:13:31;99099.72;;;18.71
24740;BMP280;45234;48.148;17.128;2023-04-25T11:15:58;99099.44;;;18.77
24740;BMP280;45234;48.148;17.128;2023-04-25T11:18:44;99091.88;;;18.66
24740;BMP280;45234;48.148;17.128;2023-04-25T11:21:11;99099.09;;;18.40
24740;BMP280;45234;48.148;17.128;2023-04-25T11:23:38;99096.06;;;18.18
24740;BMP280;45234;48.148;17.128;2023-04-25T11:26:05;99085.63;;;17.97
24740;BMP280;45234;48.148;17.128;2023-04-25T11:28:32;99101.63;;;17.86
24740;BMP280;45234;48.148;17.128;2023-04-25T11:30:59;99101.63;;;17.81
24740;BMP280;45234;48.148;17.128;2023-04-25T11:33:26;99090.66;;;17.84
24740;BMP280;45234;48.148;17.128;2023-04-25T11:35:54;99090.66;;;17.84
24740;BMP280;45234;48.148;17.128;2023-04-25T11:38:26;99094.25;;;18.03
24740;BMP280;45234;48.148;17.128;2023-04-25T11:40:55;99097.91;;;18.17
24740;BMP280;45234;48.148;17.128;2023-04-25T11:43:22;99103.38;;;18.26
24740;BMP280;45234;48.148;17.128;2023-04-25T11:45:52;99110.69;;;18.24
24740;BMP280;45234;48.148;17.128;2023-04-25T11:48:19;99098.19;;;18.05
24740;BMP280;45234;48.148;17.128;2023-04-25T11:50:53;99103.97;;;17.82
24740;BMP280;45234;48.148;17.128;2023-04-25T11:53:20;99120.00;;;17.55
24740;BMP280;45234;48.148;17.128;2023-04-25T11:55:47;99127.06;;;17.40
24740;BMP280;45234;48.148;17.128;2023-04-25T11:58:14;99131.69;;;16.82
24740;BMP280;45234;48.148;17.128;2023-04-25T12:00:42;99126.84;;;16.06
24740;BMP280;45234;48.148;17.128;2023-04-25T12:03:17;99143.53;;;15.68
24740;BMP280;45234;48.148;17.128;2023-04-25T12:05:45;99131.53;;;15.13
24740;BMP280;45234;48.148;17.128;2023-04-25T12:08:14;99120.00;;;14.83
24740;BMP280;45234;48.148;17.128;2023-04-25T12:10:43;99129.63;;;14.60
24740;BMP280;45234;48.148;17.128;2023-04-25T12:13:24;99120.63;;;14.29
24740;BMP280;45234;48.148;17.128;2023-04-25T12:15:54;99118.38;;;14.38
24740;BMP280;45234;48.148;17.128;2023-04-25T12:18:24;99114.06;;;14.49
24740;BMP280;45234;48.148;17.128;2023-04-25T12:20:53;99115.97;;;14.75
24740;BMP280;45234;48.148;17.128;2023-04-25T12:23:29;99110.88;;;14.63
24740;BMP280;45234;48.148;17.128;2023-04-25T12:25:57;99128.09;;;14.64
24740;BMP280;45234;48.148;17.128;2023-04-25T12:28:25;99132.22;;;14.77
24740;BMP280;45234;48.148;17.128;2023-04-25T12:31:04;99131.59;;;14.70
24740;BMP280;45234;48.148;17.128;2023-04-25T12:33:34;99138.72;;;14.58
24740;BMP280;45234;48.148;17.128;2023-04-25T12:36:03;99136.94;;;14.41
24740;BMP280;45234;48.148;17.128;2023-04-25T12:38:41;99143.56;;;14.32
24740;BMP280;45234;48.148;17.128;2023-04-25T12:41:09;99135.56;;;14.56
24740;BMP280;45234;48.148;17.128;2023-04-25T12:43:36;99127.81;;;15.04
24740;BMP280;45234;48.148;17.128;2023-04-25T12:46:03;99133.00;;;15.58
24740;BMP280;45234;48.148;17.128;2023-04-25T12:48:30;99125.31;;;16.10
24740;BMP280;45234;48.148;17.128;2023-04-25T12:50:57;99115.81;;;16.41
24740;BMP280;45234;48.148;17.128;2023-04-25T12:53:24;99116.50;;;16.21
24740;BMP280;45234;48.148;17.128;2023-04-25T12:55:51;99089.88;;;15.87
24740;BMP280;45234;48.148;17.128;2023-04-25T12:58:19;99112.69;;;15.60
24740;BMP280;45234;48.148;17.128;2023-04-25T13:00:46;99114.41;;;15.49
24740;BMP280;45234;48.148;17.128;2023-04-25T13:03:14;99103.84;;;15.34
24740;BMP280;45234;48.148;17.128;2023-04-25T13:05:42;99103.53;;;15.31
24740;BMP280;45234;48.148;17.128;2023-04-25T13:08:09;99118.84;;;15.49
24740;BMP280;45234;48.148;17.128;2023-04-25T13:10:36;99129.41;;;15.64
24740;BMP280;45234;48.148;17.128;2023-04-25T13:13:06;99144.09;;;15.70
24740;BMP280;45234;48.148;17.128;2023-04-25T13:15:33;99160.28;;;15.67
24740;BMP280;45234;48.148;17.128;2023-04-25T13:18:00;99168.00;;;15.57
24740;BMP280;45234;48.148;17.128;2023-04-25T13:20:27;99166.19;;;15.31
24740;BMP280;45234;48.148;17.128;2023-04-25T13:22:54;99150.81;;;15.07
24740;BMP280;45234;48.148;17.128;2023-04-25T13:25:21;99150.06;;;14.90
24740;BMP280;45234;48.148;17.128;2023-04-25T13:27:48;99144.13;;;14.73
24740;BMP280;45234;48.148;17.128;2023-04-25T13:30:15;99139.94;;;14.72
24740;BMP280;45234;48.148;17.128;2023-04-25T13:32:42;99137.53;;;14.87
24740;BMP280;45234;48.148;17.128;2023-04-25T13:35:13;99139.03;;;15.05
24740;BMP280;45234;48.148;17.128;2023-04-25T13:37:40;99140.47;;;15.39
24740;BMP280;45234;48.148;17.128;2023-04-25T13:40:09;99139.50;;;15.82
24740;BMP280;45234;48.148;17.128;2023-04-25T13:42:38;99128.78;;;16.16
24740;BMP280;45234;48.148;17.128;2023-04-25T13:45:06;99145.09;;;16.43
24740;BMP280;45234;48.148;17.128;2023-04-25T13:47:34;99152.78;;;16.65
24740;BMP280;45234;48.148;17.128;2023-04-25T13:50:03;99154.00;;;16.37
24740;BMP280;45234;48.148;17.128;2023-04-25T13:52:32;99152.13;;;15.96
24740;BMP280;45234;48.148;17.128;2023-04-25T13:54:59;99139.94;;;15.42
24740;BMP280;45234;48.148;17.128;2023-04-25T13:57:26;99147.97;;;15.09
24740;BMP280;45234;48.148;17.128;2023-04-25T13:59:53;99140.44;;;14.69
24740;BMP280;45234;48.148;17.128;2023-04-25T14:02:20;99148.41;;;14.62
24740;BMP280;45234;48.148;17.128;2023-04-25T14:04:47;99150.38;;;14.72
24740;BMP280;45234;48.148;17.128;2023-04-25T14:07:15;99146.59;;;14.85
24740;BMP280;45234;48.148;17.128;2023-04-25T14:09:50;99139.09;;;15.10
24740;BMP280;45234;48.148;17.128;2023-04-25T14:12:17;99121.19;;;15.19
24740;BMP280;45234;48.148;17.128;2023-04-25T14:14:44;99133.28;;;15.30
24740;BMP280;45234;48.148;17.128;2023-04-25T14:17:12;99142.41;;;15.54
24740;BMP280;45234;48.148;17.128;2023-04-25T14:19:39;99140.22;;;15.73
24740;BMP280;45234;48.148;17.128;2023-04-25T14:22:10;99136.13;;;15.82